If you wish to contribute or participate in the discussions about articles you are invited to join SKYbrary as a registered user

 Actions

Difference between revisions of "FBKE"

From SKYbrary Wiki

FBKE
(Created page with "{{Airport |Airport_Name=Kasane Airport |ICAO_Region=AFI |ICAO_Territory=FB |IATA Code=BBK |Elevation=3290ft |Location=Kasane |Main city served=Kasane |ISO_Subdivision_Name=Nor...")
(No difference)

Revision as of 13:49, 4 October 2019

Airport
ICAO: FBKE – IATA: BBK
Summary
Name Kasane Airport
Region Africa
Territory Botswana BW.gif
Location Kasane, North West District
Serving Kasane
Elevation 1,002.792 m
3,290 ft1,002.792 m
Coordinates 17° 49' 54.98" S, 25° 9' 50.00" E
Runways
Designator Length Width Surface ROPS
8/26 2000 m6,561.68 ft
30 m98.425 ft
ASP /


METAR
Observation FBKE 230800Z 36011KT 330V030 CAVOK 33/07 Q1013
Station Kasane
Date/Time 23 October 2019 08:00:00
Wind direction 360°
Wind speed 11 kts
Lowest cloud amount clouds and visibility OK
Temperature 33°C
Dew point 7°C
Humidity 19%
QNH 1013 hPa
Weather condition n/a

Kasane International Airport is an airport serving Kasane, a town in the North-West District of Botswana.

Climatology

Cold arid climate (Köppen climate classification BSk)

Maps

Terrain

Loading map...

Airport Layout

Loading map...


Accidents & Serious Incidents at or in vicinity of FBKE

None on SKYbrary